createdAt,value
2022-11-18T00:01:08.204Z,9.63
2022-11-18T00:05:11.615Z,9.61
2022-11-18T00:09:15.333Z,9.60
2022-11-18T00:13:37.796Z,9.56
2022-11-18T00:17:41.046Z,9.49
2022-11-18T00:21:44.356Z,9.46
2022-11-18T00:25:47.950Z,9.43
2022-11-18T00:29:52.571Z,9.42
2022-11-18T00:33:55.940Z,9.41
2022-11-18T00:37:59.343Z,9.43
2022-11-18T00:42:20.302Z,9.43
2022-11-18T00:46:25.273Z,9.43
2022-11-18T00:50:28.882Z,9.44
2022-11-18T00:54:31.912Z,9.44
2022-11-18T00:58:35.554Z,9.43
2022-11-18T01:02:40.270Z,9.42
2022-11-18T01:06:44.361Z,9.40
2022-11-18T01:10:49.174Z,9.39
2022-11-18T01:14:52.677Z,9.36
2022-11-18T01:18:57.422Z,9.36
2022-11-18T01:23:00.940Z,9.34
2022-11-18T01:27:04.352Z,9.33
2022-11-18T01:31:09.535Z,9.31
2022-11-18T01:35:15.460Z,9.29
2022-11-18T01:39:18.780Z,9.28
2022-11-18T01:43:24.003Z,9.28
2022-11-18T01:47:30.261Z,9.28
2022-11-18T01:51:38.558Z,9.29
2022-11-18T01:55:48.606Z,9.31
2022-11-18T01:59:56.137Z,9.34
2022-11-18T02:03:59.714Z,9.37
2022-11-18T02:08:05.413Z,9.39
2022-11-18T02:12:09.883Z,9.43
2022-11-18T02:16:21.530Z,9.45
2022-11-18T02:20:31.497Z,9.46
2022-11-18T02:24:44.733Z,9.47
2022-11-18T02:29:03.199Z,9.47
2022-11-18T02:33:12.739Z,9.46
2022-11-18T02:37:22.688Z,9.46
2022-11-18T02:41:29.723Z,9.49
2022-11-18T02:45:35.243Z,9.49
2022-11-18T02:49:43.592Z,9.49
2022-11-18T02:53:49.323Z,9.49
2022-11-18T02:57:54.688Z,9.45
2022-11-18T03:02:00.165Z,9.42
2022-11-18T03:06:15.578Z,9.37
2022-11-18T03:10:21.107Z,9.35
2022-11-18T03:14:30.263Z,9.30
2022-11-18T03:18:43.786Z,9.29
2022-11-18T03:22:54.174Z,9.27
2022-11-18T03:27:08.013Z,9.17
2022-11-18T03:31:16.399Z,9.15
2022-11-18T03:35:25.151Z,9.13
2022-11-18T03:39:31.254Z,9.14
2022-11-18T03:43:40.051Z,9.13
2022-11-18T03:47:47.541Z,9.14
2022-11-18T03:51:57.704Z,9.16
2022-11-18T03:56:12.757Z,9.18
2022-11-18T04:00:20.496Z,9.22
2022-11-18T04:04:26.593Z,9.25
2022-11-18T04:08:36.829Z,9.26
2022-11-18T04:12:44.667Z,9.28
2022-11-18T04:16:52.241Z,9.30
2022-11-18T04:20:55.855Z,9.32
2022-11-18T04:25:00.602Z,9.34
2022-11-18T04:29:04.009Z,9.34
2022-11-18T04:33:07.142Z,9.34
2022-11-18T04:37:10.584Z,9.35
2022-11-18T04:41:15.322Z,9.37
2022-11-18T04:45:18.552Z,9.40
2022-11-18T04:49:21.988Z,9.43
2022-11-18T04:53:25.462Z,9.45
2022-11-18T04:57:29.904Z,9.48
2022-11-18T05:01:34.278Z,9.48
2022-11-18T05:05:37.810Z,9.47
2022-11-18T05:09:41.345Z,9.45
2022-11-18T05:13:44.777Z,9.43
2022-11-18T05:17:48.985Z,9.41
2022-11-18T05:21:52.609Z,9.42
2022-11-18T05:26:01.222Z,9.41
2022-11-18T05:30:08.335Z,9.44
2022-11-18T05:34:11.722Z,9.43
2022-11-18T05:38:15.157Z,9.45
2022-11-18T05:42:36.029Z,9.47
2022-11-18T05:46:40.884Z,9.51
2022-11-18T05:50:44.520Z,9.53
2022-11-18T05:54:52.912Z,9.56
2022-11-18T05:58:56.037Z,9.57
2022-11-18T06:03:02.260Z,9.60
2022-11-18T06:07:11.353Z,9.59
2022-11-18T06:11:18.833Z,9.59
2022-11-18T06:15:27.126Z,9.58
2022-11-18T06:19:32.986Z,9.59
2022-11-18T06:23:38.597Z,9.62
2022-11-18T06:27:42.455Z,9.62
2022-11-18T06:31:46.073Z,9.64
2022-11-18T06:35:52.215Z,9.66
2022-11-18T06:39:55.188Z,9.67
2022-11-18T06:43:59.010Z,9.71
2022-11-18T06:48:02.510Z,9.72
2022-11-18T06:52:07.461Z,9.75
2022-11-18T06:56:12.450Z,9.77
2022-11-18T07:00:17.269Z,9.80
2022-11-18T07:04:20.953Z,9.83
2022-11-18T07:08:25.744Z,9.83
2022-11-18T07:12:29.188Z,9.83
2022-11-18T07:16:32.360Z,9.83
2022-11-18T07:20:36.315Z,9.80
2022-11-18T07:24:41.473Z,9.79
2022-11-18T07:28:45.242Z,9.75
2022-11-18T07:32:48.769Z,9.73
2022-11-18T07:36:52.559Z,9.73
2022-11-18T07:40:57.854Z,9.74
2022-11-18T07:45:12.430Z,9.75
2022-11-18T07:49:16.237Z,9.74
2022-11-18T07:53:19.967Z,9.77
2022-11-18T07:57:24.856Z,9.80
2022-11-18T08:01:29.847Z,9.82
2022-11-18T08:05:33.387Z,9.86
2022-11-18T08:09:36.903Z,9.94
2022-11-18T08:13:41.856Z,9.99
2022-11-18T08:17:44.980Z,10.07
2022-11-18T08:21:48.591Z,10.15
2022-11-18T08:25:52.128Z,10.24
2022-11-18T08:29:56.754Z,10.33
2022-11-18T08:34:01.287Z,10.45
2022-11-18T08:38:04.349Z,10.58
2022-11-18T08:42:07.578Z,10.67
2022-11-18T08:46:12.613Z,10.78
2022-11-18T08:50:15.840Z,10.85
2022-11-18T08:54:18.989Z,10.94
2022-11-18T08:58:22.531Z,11.06
2022-11-18T09:02:27.689Z,11.14
2022-11-18T09:06:30.869Z,11.20
2022-11-18T09:10:34.610Z,11.28
2022-11-18T09:19:24.345Z,11.37
2022-11-18T09:23:26.731Z,11.38
2022-11-18T09:27:30.243Z,11.40
2022-11-18T09:31:33.727Z,11.41
2022-11-18T09:35:43.888Z,11.45
2022-11-18T09:39:47.335Z,11.47
2022-11-18T09:44:01.798Z,11.54
2022-11-18T09:48:17.060Z,11.59
2022-11-18T09:52:25.881Z,11.63
2022-11-18T09:56:29.658Z,11.67
2022-11-18T10:00:33.422Z,11.70
2022-11-18T10:04:36.975Z,11.73
2022-11-18T10:08:47.103Z,11.76
2022-11-18T10:12:57.486Z,11.80
2022-11-18T10:17:12.385Z,11.81
2022-11-18T10:21:25.883Z,11.80
2022-11-18T10:25:31.011Z,11.82
2022-11-18T10:29:34.418Z,11.82
2022-11-18T10:33:38.290Z,11.89
2022-11-18T10:38:09.264Z,11.95
2022-11-18T10:42:07.473Z,12.09
2022-11-18T10:46:25.492Z,12.18
2022-11-18T10:50:35.948Z,12.29
2022-11-18T10:54:40.084Z,12.36
2022-11-18T10:58:46.805Z,12.44
2022-11-18T11:02:50.675Z,12.48
2022-11-18T11:06:54.706Z,12.49
2022-11-18T11:10:59.274Z,12.50
2022-11-18T11:15:07.820Z,12.51
2022-11-18T11:19:15.003Z,12.57
2022-11-18T11:23:23.493Z,12.65
2022-11-18T11:32:15.051Z,12.94
2022-11-18T11:36:38.973Z,13.03
2022-11-18T11:40:50.702Z,13.15
2022-11-18T11:45:08.225Z,13.22
2022-11-18T11:49:20.935Z,13.26
2022-11-18T11:53:42.564Z,13.25
2022-11-18T11:57:59.552Z,13.22
2022-11-18T12:02:40.221Z,13.13
2022-11-18T12:06:48.406Z,13.10
2022-11-18T12:10:55.867Z,13.13
2022-11-18T12:15:05.632Z,13.13
2022-11-18T12:19:12.935Z,13.12
2022-11-18T12:23:31.494Z,13.05
2022-11-18T12:28:01.297Z,12.99
2022-11-18T12:32:06.163Z,12.90
2022-11-18T12:36:09.960Z,12.80
2022-11-18T12:40:34.699Z,12.74
2022-11-18T12:44:39.568Z,12.67
2022-11-18T12:48:43.559Z,12.62
2022-11-18T12:52:49.523Z,12.57
2022-11-18T12:56:55.247Z,12.52
2022-11-18T13:01:13.338Z,12.48
2022-11-18T13:05:23.119Z,12.46
2022-11-18T13:09:27.669Z,12.46
2022-11-18T13:13:34.628Z,12.45
2022-11-18T13:17:55.334Z,12.46
2022-11-18T13:22:19.613Z,12.47
2022-11-18T13:26:28.597Z,12.47
2022-11-18T13:30:36.916Z,12.46
2022-11-18T13:34:47.729Z,12.43
2022-11-18T13:38:58.152Z,12.40
2022-11-18T13:43:02.022Z,12.32
2022-11-18T13:47:17.520Z,12.23
2022-11-18T13:51:21.612Z,12.15
2022-11-18T13:55:27.177Z,12.11
2022-11-18T13:59:30.936Z,12.07
2022-11-18T14:03:47.576Z,12.02
2022-11-18T14:08:03.454Z,11.96
2022-11-18T14:16:36.901Z,11.82
2022-11-18T14:20:41.908Z,11.80
2022-11-18T14:24:45.946Z,11.76
2022-11-18T14:28:56.998Z,11.69
2022-11-18T14:33:22.429Z,11.66
2022-11-18T14:37:28.540Z,11.58
2022-11-18T14:41:49.837Z,11.50
2022-11-18T14:45:56.547Z,11.45
2022-11-18T14:50:00.118Z,11.41
2022-11-18T14:54:06.146Z,11.39
2022-11-18T14:58:14.650Z,11.38
2022-11-18T15:02:19.564Z,11.38
2022-11-18T15:06:23.795Z,11.34
2022-11-18T15:10:29.187Z,11.31
2022-11-18T15:14:32.701Z,11.28
2022-11-18T15:18:35.829Z,11.25
2022-11-18T15:22:39.425Z,11.26
2022-11-18T15:26:46.897Z,11.26
2022-11-18T15:30:50.466Z,11.25
2022-11-18T15:34:54.066Z,11.24
2022-11-18T15:38:57.018Z,11.21
2022-11-18T15:43:02.073Z,11.16
2022-11-18T15:47:05.960Z,11.10
2022-11-18T15:51:12.121Z,11.03
2022-11-18T15:55:15.875Z,10.97
2022-11-18T15:59:21.086Z,10.95
2022-11-18T16:03:27.650Z,10.87
2022-11-18T16:07:31.346Z,10.81
2022-11-18T16:11:52.538Z,10.77
2022-11-18T16:15:57.163Z,10.74
2022-11-18T16:20:00.941Z,10.67
2022-11-18T16:24:06.948Z,10.63
2022-11-18T16:28:10.513Z,10.57
2022-11-18T16:32:16.125Z,10.55
2022-11-18T16:36:19.177Z,10.48
2022-11-18T16:40:22.992Z,10.46
2022-11-18T16:44:26.447Z,10.42
2022-11-18T16:48:31.526Z,10.41
2022-11-18T16:52:35.126Z,10.37
2022-11-18T16:56:41.946Z,10.37
2022-11-18T17:01:16.725Z,10.35
2022-11-18T17:05:11.955Z,10.35
2022-11-18T17:09:17.233Z,10.34
2022-11-18T17:13:21.357Z,10.29
2022-11-18T17:17:24.415Z,10.29
2022-11-18T17:21:31.046Z,10.27
2022-11-18T17:25:36.153Z,10.23
2022-11-18T17:29:39.601Z,10.22
2022-11-18T17:33:43.609Z,10.18
2022-11-18T17:37:48.240Z,10.16
2022-11-18T17:42:11.840Z,10.13
2022-11-18T17:46:15.303Z,10.12
2022-11-18T17:50:20.509Z,10.10
2022-11-18T17:54:24.974Z,10.09
2022-11-18T17:58:28.623Z,10.06
2022-11-18T18:02:32.976Z,10.08
2022-11-18T18:06:36.471Z,10.08
2022-11-18T18:10:41.668Z,10.07
2022-11-18T18:14:45.450Z,10.07
2022-11-18T18:18:49.108Z,10.09
2022-11-18T18:22:53.845Z,10.08
2022-11-18T18:26:58.374Z,10.10
2022-11-18T18:35:18.899Z,10.09
2022-11-18T18:39:22.790Z,10.09
2022-11-18T18:43:27.732Z,10.08
2022-11-18T18:47:30.906Z,10.08
2022-11-18T18:51:39.148Z,10.08
2022-11-18T18:55:45.108Z,10.05
2022-11-18T18:59:50.376Z,10.05
2022-11-18T19:03:58.978Z,10.05
2022-11-18T19:08:02.291Z,10.03
2022-11-18T19:12:24.135Z,9.96
2022-11-18T19:16:29.647Z,10.01
2022-11-18T19:20:38.616Z,9.98
2022-11-18T19:24:49.759Z,9.98
2022-11-18T19:28:54.830Z,9.99
2022-11-18T19:33:00.987Z,10.02
2022-11-18T19:37:04.975Z,9.98
2022-11-18T19:41:10.716Z,9.96
2022-11-18T19:45:15.503Z,9.98
2022-11-18T19:49:21.824Z,9.92
2022-11-18T19:53:35.759Z,9.88
2022-11-18T19:57:42.440Z,9.77
2022-11-18T20:01:46.398Z,9.69
2022-11-18T20:05:53.924Z,9.61
2022-11-18T20:09:57.875Z,9.65
2022-11-18T20:14:01.504Z,9.65
2022-11-18T20:18:06.546Z,9.62
2022-11-18T20:22:12.292Z,9.71
2022-11-18T20:26:19.829Z,9.78
2022-11-18T20:30:24.117Z,9.78
2022-11-18T20:34:27.934Z,9.80
2022-11-18T20:38:37.660Z,9.85
2022-11-18T20:43:00.012Z,9.87
2022-11-18T20:47:03.626Z,9.91
2022-11-18T20:51:09.312Z,9.90
2022-11-18T20:55:17.741Z,9.96
2022-11-18T20:59:21.307Z,9.99
2022-11-18T21:03:25.974Z,9.96
2022-11-18T21:07:29.624Z,9.97
2022-11-18T21:11:39.150Z,10.04
2022-11-18T21:15:42.376Z,10.06
2022-11-18T21:19:48.495Z,10.09
2022-11-18T21:23:55.550Z,10.06
2022-11-18T21:28:00.353Z,10.09
2022-11-18T21:32:04.035Z,10.15
2022-11-18T21:36:08.284Z,10.17
2022-11-18T21:40:13.171Z,10.20
2022-11-18T21:44:17.736Z,10.23
2022-11-18T21:48:21.461Z,10.24
2022-11-18T21:52:25.045Z,10.25
2022-11-18T21:56:31.612Z,10.32
2022-11-18T22:00:36.721Z,10.35
2022-11-18T22:04:54.951Z,10.37
2022-11-18T22:08:59.527Z,10.38
2022-11-18T22:13:03.246Z,10.43
2022-11-18T22:17:09.512Z,10.47
2022-11-18T22:21:14.800Z,10.51
2022-11-18T22:25:17.993Z,10.49
2022-11-18T22:29:23.946Z,10.56
2022-11-18T22:33:29.057Z,10.58
2022-11-18T22:37:32.574Z,10.59
2022-11-18T22:41:53.482Z,10.53
2022-11-18T22:46:04.413Z,10.65
2022-11-18T22:50:09.626Z,10.65
2022-11-18T22:58:36.700Z,10.67
2022-11-18T23:02:40.314Z,10.70
2022-11-18T23:06:45.371Z,10.69
2022-11-18T23:10:48.764Z,10.71
2022-11-18T23:14:52.202Z,10.66
2022-11-18T23:18:55.722Z,10.71
2022-11-18T23:23:00.641Z,10.71
2022-11-18T23:27:04.148Z,10.67
2022-11-18T23:31:08.893Z,10.65
2022-11-18T23:35:12.285Z,10.60
2022-11-18T23:39:17.832Z,10.52
2022-11-18T23:43:21.256Z,10.61
2022-11-18T23:47:26.778Z,10.64
2022-11-18T23:51:30.430Z,10.63
2022-11-18T23:55:35.976Z,10.68
2022-11-18T23:59:39.439Z,10.70
